Time;durP1;ratioP1;P1;durP2;ratioP2;P2;SDS_P1;SDS_P2;PMS_P1;PMS_P2;Temp;Humidity;BMP_temperature;BMP_pressure;BME280_temperature;BME280_humidity;BME280_pressure;Samples;Min_cycle;Max_cycle;Signal;HPM_P1;HPM_P2
2021/12/21 00:01:28;;;;;;;5.03;3.67;;;0.90;78.50;;;;;;5001492;28;20555;-47
2021/12/21 00:03:54;;;;;;;5.40;4.90;;;0.90;78.50;;;;;;5002643;28;20464;-46
2021/12/21 00:06:21;;;;;;;7.77;4.17;;;1.00;78.70;;;;;;5002816;28;20444;-47
2021/12/21 00:08:48;;;;;;;5.40;3.90;;;1.00;78.60;;;;;;5002021;28;20477;-46
2021/12/21 00:11:16;;;;;;;7.20;3.60;;;0.90;78.50;;;;;;4990900;28;20452;-46
2021/12/21 00:13:58;;;;;;;8.10;4.27;;;0.90;78.50;;;;;;5003850;28;20488;-46
2021/12/21 00:16:45;;;;;;;5.27;4.30;;;0.90;78.80;;;;;;4998471;28;20449;-46
2021/12/21 00:22:01;;;;;;;7.43;4.17;;;0.90;78.80;;;;;;5002103;28;20450;-46
2021/12/21 00:24:34;;;;;;;5.50;3.90;;;0.80;78.80;;;;;;4998826;28;20550;-46
2021/12/21 00:27:07;;;;;;;5.10;3.20;;;0.80;78.80;;;;;;4985948;28;20456;-46
2021/12/21 00:29:34;;;;;;;5.37;4.10;;;0.80;78.90;;;;;;4999813;28;20449;-46
2021/12/21 00:32:01;;;;;;;6.77;4.53;;;0.90;78.90;;;;;;5001296;28;20980;-46
2021/12/21 00:34:28;;;;;;;10.40;5.00;;;0.90;78.70;;;;;;4977946;28;20858;-46
2021/12/21 00:36:54;;;;;;;6.47;4.00;;;0.90;78.60;;;;;;4984277;28;20475;-46
2021/12/21 00:39:22;;;;;;;8.50;4.10;;;0.80;78.50;;;;;;5000624;28;20449;-46
2021/12/21 00:41:48;;;;;;;9.10;4.20;;;0.80;78.60;;;;;;4998161;28;20455;-47
2021/12/21 00:44:15;;;;;;;7.83;3.80;;;0.70;78.90;;;;;;5000249;28;20474;-46
2021/12/21 00:46:43;;;;;;;7.93;4.20;;;0.70;78.80;;;;;;4982526;28;20453;-46
2021/12/21 00:49:14;;;;;;;3.57;2.80;;;0.70;78.70;;;;;;5001717;28;20452;-46
2021/12/21 00:51:43;;;;;;;6.40;4.60;;;0.70;78.70;;;;;;4983002;28;20457;-46
2021/12/21 00:54:10;;;;;;;5.37;3.00;;;0.70;78.50;;;;;;5000657;28;20881;-46
2021/12/21 00:56:37;;;;;;;6.67;3.60;;;0.70;78.60;;;;;;4989444;28;20467;-46
2021/12/21 00:59:05;;;;;;;7.80;4.30;;;0.60;78.70;;;;;;5001732;28;20992;-46
2021/12/21 01:01:36;;;;;;;9.37;3.93;;;0.60;78.70;;;;;;4998747;28;20835;-46
2021/12/21 01:04:07;;;;;;;5.87;3.20;;;0.60;78.80;;;;;;5003307;28;20478;-46
2021/12/21 01:06:41;;;;;;;5.33;3.23;;;0.60;78.70;;;;;;4989475;28;20468;-46
2021/12/21 01:09:37;;;;;;;5.30;3.10;;;0.60;78.60;;;;;;4982856;28;20547;-46
2021/12/21 01:12:05;;;;;;;5.47;3.80;;;0.60;78.50;;;;;;5000880;28;20842;-46
2021/12/21 01:15:06;;;;;;;6.97;3.80;;;0.60;78.40;;;;;;4998360;28;20488;-46
2021/12/21 01:17:47;;;;;;;7.20;2.77;;;0.50;78.20;;;;;;4998894;28;20459;-46
2021/12/21 01:20:36;;;;;;;11.70;4.23;;;0.60;78.30;;;;;;4981172;28;20529;-46
2021/12/21 01:23:36;;;;;;;4.90;3.37;;;0.60;78.70;;;;;;4998055;28;20884;-46
2021/12/21 01:31:05;;;;;;;5.40;3.67;;;0.50;78.70;;;;;;4985250;28;20462;-46
2021/12/21 01:36:19;;;;;;;6.73;3.73;;;0.50;78.50;;;;;;5000774;28;20456;-46
2021/12/21 01:39:13;;;;;;;;;;;;;;;;;;;;;
2021/12/21 01:41:42;;;;;;;4.00;3.23;;;0.40;78.80;;;;;;4999484;28;20528;-46
2021/12/21 01:49:44;;;;;;;6.50;5.13;;;0.40;78.80;;;;;;5000764;28;20531;-46
2021/12/21 01:52:14;;;;;;;3.33;3.03;;;0.40;79.10;;;;;;4987756;28;20955;-46
2021/12/21 01:54:41;;;;;;;5.03;2.90;;;0.40;78.90;;;;;;4989020;28;21028;-46
2021/12/21 01:57:10;;;;;;;4.00;2.57;;;0.40;78.70;;;;;;4998056;28;20444;-46
2021/12/21 01:59:40;;;;;;;3.77;3.23;;;0.40;78.50;;;;;;4987125;28;20476;-46
2021/12/21 02:02:09;;;;;;;5.10;3.63;;;0.40;78.80;;;;;;4999247;28;20992;-46
2021/12/21 02:04:38;;;;;;;3.80;2.50;;;0.40;78.70;;;;;;4998607;28;20467;-46
2021/12/21 02:07:06;;;;;;;4.03;2.73;;;0.40;78.70;;;;;;4998101;28;20830;-46
2021/12/21 02:09:39;;;;;;;4.80;3.10;;;0.40;78.70;;;;;;4999579;28;20477;-46
2021/12/21 02:12:11;;;;;;;2.57;2.10;;;0.40;78.70;;;;;;4999197;28;20460;-46
2021/12/21 02:14:39;;;;;;;5.43;3.10;;;0.30;78.70;;;;;;4994479;28;20494;-46
2021/12/21 02:20:07;;;;;;;24.93;14.73;;;0.30;78.60;;;;;;5000134;28;20451;-46
2021/12/21 02:22:38;;;;;;;14.30;8.10;;;0.30;78.60;;;;;;5000893;28;20464;-46
2021/12/21 02:28:11;;;;;;;14.00;8.13;;;0.20;78.80;;;;;;4987941;28;20549;-46
2021/12/21 02:30:42;;;;;;;13.07;7.17;;;0.20;78.60;;;;;;4988986;28;20475;-45
2021/12/21 02:33:11;;;;;;;12.20;8.00;;;0.20;78.60;;;;;;4990401;28;20459;-46
2021/12/21 02:35:38;;;;;;;4.83;4.20;;;0.20;78.80;;;;;;4999722;28;21336;-46
2021/12/21 02:38:05;;;;;;;6.30;3.30;;;0.20;78.60;;;;;;5000304;28;20452;-46
2021/12/21 02:40:34;;;;;;;3.33;3.03;;;0.20;78.70;;;;;;4998015;28;20457;-45
2021/12/21 02:43:00;;;;;;;5.07;3.63;;;0.10;78.60;;;;;;5007203;28;20466;-45
2021/12/21 02:45:27;;;;;;;2.93;2.70;;;0.10;78.90;;;;;;5005148;28;20977;-45
2021/12/21 02:47:54;;;;;;;4.93;2.73;;;0.10;78.90;;;;;;4984824;28;20471;-45
2021/12/21 02:50:21;;;;;;;8.13;2.60;;;0.10;78.90;;;;;;5004913;28;21014;-46
2021/12/21 02:52:48;;;;;;;5.67;2.80;;;0.00;79.00;;;;;;4985400;28;20475;-45
2021/12/21 02:55:15;;;;;;;6.30;2.60;;;0.10;79.20;;;;;;5002323;28;20925;-45
2021/12/21 02:57:42;;;;;;;2.20;2.00;;;0.10;79.20;;;;;;5002317;28;20472;-51
2021/12/21 03:00:10;;;;;;;5.10;3.17;;;0.10;78.90;;;;;;4997278;28;20826;-46
2021/12/21 03:02:38;;;;;;;3.43;2.90;;;0.10;78.80;;;;;;4988157;28;20489;-46
2021/12/21 03:05:05;;;;;;;2.33;2.13;;;0.10;78.80;;;;;;4989182;28;20527;-46
2021/12/21 03:10:23;;;;;;;4.83;2.87;;;0.10;79.00;;;;;;5000184;28;20483;-46
2021/12/21 03:15:24;;;;;;;3.97;2.50;;;0.10;79.00;;;;;;5004103;28;20492;-46
2021/12/21 03:17:52;;;;;;;4.70;2.70;;;0.10;79.00;;;;;;5003740;28;20547;-45
2021/12/21 03:20:20;;;;;;;3.97;2.47;;;0.10;79.20;;;;;;5003665;28;20522;-45
2021/12/21 03:22:48;;;;;;;3.80;2.50;;;0.10;79.20;;;;;;4999118;28;20456;-45
2021/12/21 03:25:15;;;;;;;2.27;2.13;;;0.00;79.00;;;;;;5002852;28;20468;-45
2021/12/21 03:27:42;;;;;;;3.07;2.87;;;0.00;79.00;;;;;;4984787;28;20983;-45
2021/12/21 03:30:11;;;;;;;4.80;2.67;;;0.00;79.00;;;;;;4989369;28;20469;-45
2021/12/21 03:32:39;;;;;;;7.53;2.30;;;0.00;79.40;;;;;;4983643;28;20465;-44
2021/12/21 03:35:07;;;;;;;2.53;2.10;;;-0.10;79.10;;;;;;5001267;28;20491;-46
2021/12/21 03:37:34;;;;;;;5.70;2.50;;;-0.10;78.90;;;;;;5000332;28;20453;-45
2021/12/21 03:40:03;;;;;;;2.33;2.13;;;-0.10;78.90;;;;;;5005186;28;20721;-44
2021/12/21 03:42:30;;;;;;;3.80;3.13;;;-0.10;78.90;;;;;;5001169;28;20461;-45
2021/12/21 03:44:58;;;;;;;3.43;2.73;;;-0.20;78.90;;;;;;5002638;28;20469;-45
2021/12/21 03:47:25;;;;;;;4.33;2.80;;;-0.10;79.00;;;;;;5000768;28;20480;-44
2021/12/21 03:49:56;;;;;;;3.07;2.77;;;-0.10;79.00;;;;;;5002285;28;20615;-44
2021/12/21 03:52:26;;;;;;;6.10;2.23;;;-0.10;79.00;;;;;;4987198;28;20461;-46
2021/12/21 03:54:55;;;;;;;6.50;2.80;;;-0.10;78.90;;;;;;4999135;28;20488;-44
2021/12/21 03:57:22;;;;;;;2.70;1.70;;;-0.10;78.90;;;;;;5000462;28;20914;-45
2021/12/21 03:59:49;;;;;;;2.23;2.03;;;-0.20;78.90;;;;;;5002941;28;20479;-45
2021/12/21 04:02:18;;;;;;;6.83;3.30;;;-0.20;79.10;;;;;;4997159;28;20464;-45
2021/12/21 04:04:46;;;;;;;6.63;5.00;;;-0.20;79.20;;;;;;4999609;28;20478;-45
2021/12/21 04:07:12;;;;;;;3.70;2.97;;;-0.20;79.50;;;;;;4989109;28;20538;-45
2021/12/21 04:09:39;;;;;;;3.87;3.00;;;-0.20;79.50;;;;;;5000760;28;20481;-45
2021/12/21 04:12:06;;;;;;;3.57;3.00;;;-0.20;79.60;;;;;;5000578;28;20452;-45
2021/12/21 04:14:34;;;;;;;3.87;2.33;;;-0.20;79.40;;;;;;4999996;28;20475;-45
2021/12/21 04:17:02;;;;;;;3.80;3.50;;;-0.20;79.50;;;;;;4999573;28;20456;-45
2021/12/21 04:19:28;;;;;;;3.57;2.87;;;-0.20;79.30;;;;;;5001199;28;20456;-45
2021/12/21 04:21:55;;;;;;;3.90;2.50;;;-0.20;79.30;;;;;;5002965;28;20996;-45
2021/12/21 04:24:22;;;;;;;4.77;2.83;;;-0.20;79.30;;;;;;5003745;28;20830;-45
2021/12/21 04:26:49;;;;;;;3.70;2.43;;;-0.20;79.50;;;;;;4988132;28;20468;-45
2021/12/21 04:29:15;;;;;;;4.37;2.80;;;-0.20;79.30;;;;;;5000684;28;20448;-45
2021/12/21 04:31:42;;;;;;;3.23;2.57;;;-0.30;79.40;;;;;;4999014;28;20468;-45
2021/12/21 04:34:09;;;;;;;6.30;3.93;;;-0.30;79.50;;;;;;4982202;28;20514;-45
2021/12/21 04:36:37;;;;;;;3.97;2.37;;;-0.30;79.20;;;;;;5002642;28;20504;-45
2021/12/21 04:39:15;;;;;;;3.40;2.93;;;-0.30;79.40;;;;;;5002104;28;20524;-45
2021/12/21 04:41:43;;;;;;;2.73;2.50;;;-0.30;79.30;;;;;;4997487;28;20452;-45
2021/12/21 04:44:28;;;;;;;5.37;3.20;;;-0.40;79.40;;;;;;4999565;28;20989;-45
2021/12/21 04:46:55;;;;;;;4.77;3.43;;;-0.30;79.50;;;;;;5002685;28;20487;-45
2021/12/21 04:49:22;;;;;;;2.53;2.23;;;-0.40;79.40;;;;;;5002029;28;20465;-45
2021/12/21 04:51:49;;;;;;;8.30;3.20;;;-0.30;79.50;;;;;;4998220;28;20523;-45
2021/12/21 04:54:16;;;;;;;2.87;2.50;;;-0.40;79.70;;;;;;4999366;28;20472;-45
2021/12/21 04:56:42;;;;;;;3.57;3.27;;;-0.30;79.70;;;;;;4998396;28;20850;-45
2021/12/21 04:59:09;;;;;;;5.30;2.50;;;-0.30;79.70;;;;;;4997539;28;20484;-45
2021/12/21 05:01:41;;;;;;;5.10;3.23;;;-0.40;79.90;;;;;;4996691;28;20484;-45
2021/12/21 05:04:08;;;;;;;6.20;2.73;;;-0.40;80.00;;;;;;4998339;28;20471;-45
2021/12/21 05:06:35;;;;;;;5.73;3.00;;;-0.40;79.90;;;;;;5000302;28;20518;-45
2021/12/21 05:09:21;;;;;;;8.53;3.27;;;-0.40;79.80;;;;;;4985924;28;20828;-45
2021/12/21 05:11:48;;;;;;;6.60;3.30;;;-0.40;79.90;;;;;;5000992;28;20509;-45
2021/12/21 05:14:15;;;;;;;4.57;3.30;;;-0.40;80.20;;;;;;4997990;28;20476;-45
2021/12/21 05:16:41;;;;;;;2.97;2.77;;;-0.50;80.10;;;;;;5000068;28;20492;-45
2021/12/21 05:19:08;;;;;;;10.63;3.97;;;-0.50;80.10;;;;;;5002421;28;20554;-45
2021/12/21 05:21:35;;;;;;;8.87;4.77;;;-0.50;80.00;;;;;;5001319;28;20837;-45
2021/12/21 05:24:02;;;;;;;3.07;2.87;;;-0.50;80.10;;;;;;4999319;28;20461;-45
2021/12/21 05:26:28;;;;;;;4.80;3.57;;;-0.50;80.20;;;;;;5001804;28;20468;-45
2021/12/21 05:28:55;;;;;;;5.10;3.70;;;-0.50;79.90;;;;;;5000469;28;20475;-45
2021/12/21 05:31:22;;;;;;;3.70;3.00;;;-0.60;80.10;;;;;;4987341;28;20977;-46
2021/12/21 05:33:51;;;;;;;5.63;3.57;;;-0.50;80.20;;;;;;4997105;28;20465;-45
2021/12/21 05:36:20;;;;;;;3.97;3.60;;;-0.60;80.10;;;;;;4982535;28;20530;-45
2021/12/21 05:38:52;;;;;;;4.50;3.93;;;-0.50;80.10;;;;;;4999848;28;20943;-45
2021/12/21 05:41:29;;;;;;;5.37;3.40;;;-0.50;80.20;;;;;;5001025;28;20465;-44
2021/12/21 05:43:56;;;;;;;6.13;3.57;;;-0.50;80.20;;;;;;4984588;28;20474;-45
2021/12/21 05:46:23;;;;;;;3.77;3.43;;;-0.60;80.20;;;;;;4984070;28;21034;-44
2021/12/21 05:48:51;;;;;;;9.60;3.30;;;-0.60;80.30;;;;;;5001082;28;20916;-44
2021/12/21 05:51:20;;;;;;;6.20;3.93;;;-0.60;80.30;;;;;;4998957;28;20528;-44
2021/12/21 05:53:48;;;;;;;6.07;3.70;;;-0.60;80.40;;;;;;5003888;28;20494;-45
2021/12/21 05:56:15;;;;;;;5.63;4.53;;;-0.60;80.20;;;;;;5001630;28;20871;-44
2021/12/21 05:58:42;;;;;;;4.93;4.20;;;-0.60;80.20;;;;;;5001683;28;20488;-45
2021/12/21 06:01:09;;;;;;;5.23;3.40;;;-0.60;80.40;;;;;;5003365;28;20988;-44
2021/12/21 06:03:36;;;;;;;8.87;4.07;;;-0.60;80.40;;;;;;5003061;28;20848;-44
2021/12/21 06:06:03;;;;;;;9.00;4.03;;;-0.60;80.30;;;;;;5003995;28;20468;-44
2021/12/21 06:08:29;;;;;;;14.13;5.07;;;-0.60;80.40;;;;;;5003895;28;20575;-44
2021/12/21 06:10:57;;;;;;;8.20;3.70;;;-0.60;80.50;;;;;;4988837;28;20460;-44
2021/12/21 06:26:24;;;;;;;8.60;5.40;;;-0.60;80.40;;;;;;5002614;28;20478;-44
2021/12/21 06:28:51;;;;;;;7.37;4.20;;;-0.60;80.50;;;;;;5001604;28;20461;-44
2021/12/21 06:31:18;;;;;;;5.67;4.80;;;-0.60;80.50;;;;;;5002191;28;20466;-45
2021/12/21 06:33:45;;;;;;;7.33;3.87;;;-0.60;80.60;;;;;;5000351;28;20483;-44
2021/12/21 06:36:12;;;;;;;9.90;6.60;;;-0.70;80.60;;;;;;4999233;28;20487;-44
2021/12/21 06:38:40;;;;;;;7.00;5.00;;;-0.70;80.80;;;;;;4988269;28;20465;-44
2021/12/21 06:41:07;;;;;;;9.90;5.37;;;-0.70;80.90;;;;;;5002867;28;20468;-45
2021/12/21 06:43:35;;;;;;;9.27;4.87;;;-0.70;80.80;;;;;;5001234;28;20544;-44
2021/12/21 06:46:18;;;;;;;6.20;5.40;;;-0.70;81.10;;;;;;5003592;28;20459;-44
2021/12/21 06:51:46;;;;;;;7.50;4.80;;;-0.70;80.80;;;;;;5003490;28;20893;-44
2021/12/21 06:54:13;;;;;;;5.33;4.83;;;-0.70;81.00;;;;;;5002321;28;20468;-44
2021/12/21 06:56:39;;;;;;;6.87;4.37;;;-0.70;80.80;;;;;;5005054;28;20487;-44
2021/12/21 06:59:06;;;;;;;6.53;4.40;;;-0.80;81.00;;;;;;5002069;28;20473;-45
2021/12/21 07:01:37;;;;;;;5.30;4.43;;;-0.80;81.00;;;;;;4986158;28;20449;-44
2021/12/21 07:04:05;;;;;;;7.33;3.80;;;-0.80;81.10;;;;;;4981670;28;20464;-44
2021/12/21 07:06:36;;;;;;;7.13;5.40;;;-0.80;81.10;;;;;;5001634;28;20563;-44
2021/12/21 07:09:12;;;;;;;7.23;4.70;;;-0.80;81.10;;;;;;5000735;28;20739;-44
2021/12/21 07:11:57;;;;;;;8.30;5.23;;;-0.80;80.90;;;;;;5000625;28;20467;-44
2021/12/21 07:19:55;;;;;;;4.50;4.10;;;-0.80;80.90;;;;;;5001176;28;20452;-44
2021/12/21 07:22:23;;;;;;;5.23;4.60;;;-0.80;81.10;;;;;;4998687;28;20464;-44
2021/12/21 07:24:50;;;;;;;4.30;3.90;;;-0.80;81.10;;;;;;4986624;28;20839;-49
2021/12/21 07:27:20;;;;;;;7.80;4.50;;;-0.80;81.10;;;;;;4986035;28;20465;-48
2021/12/21 07:29:54;;;;;;;7.13;4.20;;;-0.80;80.90;;;;;;5000973;28;20464;-45
2021/12/21 07:32:21;;;;;;;4.87;4.47;;;-0.80;81.00;;;;;;4985688;28;20487;-45
2021/12/21 07:34:47;;;;;;;5.07;4.57;;;-0.80;80.80;;;;;;5000651;28;20469;-45
2021/12/21 07:37:14;;;;;;;8.17;4.57;;;-0.80;81.00;;;;;;4997760;28;20501;-45
2021/12/21 07:39:41;;;;;;;7.10;4.40;;;-0.80;81.10;;;;;;5000756;28;21031;-45
2021/12/21 07:42:17;;;;;;;7.77;4.10;;;-0.80;81.20;;;;;;5003989;28;20499;-45
2021/12/21 07:44:44;;;;;;;4.80;4.40;;;-0.80;81.30;;;;;;5002186;28;20532;-45
2021/12/21 07:47:10;;;;;;;5.40;4.57;;;-0.90;81.30;;;;;;5000808;28;20500;-45
2021/12/21 07:49:37;;;;;;;4.30;3.10;;;-0.90;81.40;;;;;;4997227;28;20548;-45
2021/12/21 07:52:09;;;;;;;5.70;4.83;;;-0.90;81.50;;;;;;4995361;28;20555;-45
2021/12/21 07:54:36;;;;;;;6.50;4.20;;;-0.80;81.60;;;;;;4998475;28;20465;-45
2021/12/21 07:57:08;;;;;;;14.40;5.00;;;-0.90;81.60;;;;;;5003438;28;21001;-45
2021/12/21 07:59:37;;;;;;;4.40;3.63;;;-0.90;81.80;;;;;;4987962;28;20840;-45
2021/12/21 08:02:13;;;;;;;8.37;4.67;;;-0.90;82.00;;;;;;4999908;28;20492;-45
2021/12/21 08:04:42;;;;;;;4.33;4.03;;;-0.80;82.10;;;;;;4982567;28;20465;-45
2021/12/21 08:07:14;;;;;;;8.80;4.23;;;-0.80;82.00;;;;;;4983423;28;20479;-45
2021/12/21 08:09:45;;;;;;;8.60;5.10;;;-0.70;82.00;;;;;;4995940;28;20481;-45
2021/12/21 08:12:17;;;;;;;5.30;4.60;;;-0.80;82.10;;;;;;4986227;28;20472;-45
2021/12/21 08:14:46;;;;;;;6.70;4.87;;;-0.70;81.90;;;;;;4997784;28;20834;-44
2021/12/21 08:17:14;;;;;;;8.80;4.67;;;-0.70;82.10;;;;;;4997503;28;20495;-44
2021/12/21 08:19:43;;;;;;;6.97;5.10;;;-0.60;82.00;;;;;;5001069;28;20453;-44
2021/12/21 08:22:12;;;;;;;8.43;4.57;;;-0.60;82.00;;;;;;4997953;28;20552;-45
2021/12/21 08:24:43;;;;;;;8.27;4.47;;;-0.60;82.10;;;;;;4999201;28;20472;-44
2021/12/21 08:27:10;;;;;;;7.17;4.57;;;-0.50;82.20;;;;;;4999878;28;20515;-45
2021/12/21 08:29:36;;;;;;;11.50;5.40;;;-0.50;82.20;;;;;;5002369;28;20483;-45
2021/12/21 08:32:04;;;;;;;20.37;13.50;;;-0.50;82.40;;;;;;4983273;28;20838;-45
2021/12/21 08:34:30;;;;;;;18.40;11.33;;;-0.40;82.40;;;;;;4998786;28;20553;-44
2021/12/21 08:36:57;;;;;;;13.70;8.20;;;-0.40;82.40;;;;;;5002805;28;20489;-44
2021/12/21 08:39:26;;;;;;;12.20;9.03;;;-0.40;82.30;;;;;;4986088;28;20461;-44
2021/12/21 08:41:58;;;;;;;11.40;6.53;;;-0.40;82.40;;;;;;4988072;28;20961;-44
2021/12/21 08:44:26;;;;;;;12.50;7.40;;;-0.40;82.70;;;;;;5002038;28;20535;-44
2021/12/21 08:46:57;;;;;;;14.93;7.77;;;-0.30;82.80;;;;;;5002246;28;20500;-44
2021/12/21 08:49:28;;;;;;;8.80;6.90;;;-0.20;82.70;;;;;;5003017;28;20468;-44
2021/12/21 08:51:56;;;;;;;7.80;5.73;;;-0.30;82.70;;;;;;4999490;28;20814;-44
2021/12/21 08:54:23;;;;;;;7.27;5.70;;;-0.20;82.90;;;;;;4986824;28;20468;-44
2021/12/21 08:56:50;;;;;;;6.87;5.00;;;-0.20;83.00;;;;;;5000112;28;20480;-46
2021/12/21 08:59:18;;;;;;;7.03;5.90;;;-0.20;83.20;;;;;;4998681;28;20560;-45
2021/12/21 09:01:46;;;;;;;6.80;4.97;;;-0.20;83.10;;;;;;5002683;28;21009;-45
2021/12/21 09:04:15;;;;;;;8.83;4.57;;;-0.20;83.40;;;;;;4998426;28;20819;-44
2021/12/21 09:06:42;;;;;;;6.17;5.53;;;-0.20;83.50;;;;;;4997889;28;20480;-44
2021/12/21 09:09:09;;;;;;;8.30;5.13;;;-0.10;83.50;;;;;;4980124;28;20464;-45
2021/12/21 09:11:37;;;;;;;8.33;5.70;;;0.00;83.30;;;;;;4979391;28;20794;-44
2021/12/21 09:14:05;;;;;;;12.37;6.00;;;0.00;83.40;;;;;;4978635;28;20985;-44
2021/12/21 09:16:33;;;;;;;11.70;6.30;;;0.10;83.50;;;;;;4979926;28;20489;-44
2021/12/21 09:19:02;;;;;;;12.67;6.27;;;0.10;83.60;;;;;;4998161;28;20460;-44
2021/12/21 09:21:29;;;;;;;12.63;6.83;;;0.10;83.80;;;;;;5001522;28;20536;-45
2021/12/21 09:23:56;;;;;;;11.03;5.43;;;0.10;83.90;;;;;;5001629;28;20467;-44
2021/12/21 09:26:23;;;;;;;10.93;5.60;;;0.20;84.10;;;;;;5000197;28;20523;-44
2021/12/21 09:28:50;;;;;;;5.47;4.57;;;0.30;84.00;;;;;;5000686;28;20465;-44
2021/12/21 09:31:17;;;;;;;7.80;6.00;;;0.40;84.10;;;;;;4988478;28;20472;-44
2021/12/21 09:33:44;;;;;;;5.07;4.40;;;0.50;83.80;;;;;;4998404;28;20478;-45
2021/12/21 09:36:11;;;;;;;7.97;4.30;;;0.60;83.60;;;;;;5002553;28;20481;-45
2021/12/21 09:38:39;;;;;;;7.33;4.67;;;0.70;83.60;;;;;;4984455;28;20489;-45
2021/12/21 09:41:05;;;;;;;5.80;4.87;;;0.80;82.80;;;;;;4983932;28;20460;-45
2021/12/21 09:43:33;;;;;;;7.37;3.87;;;0.90;82.00;;;;;;4981116;28;20461;-44
2021/12/21 09:46:00;;;;;;;6.10;3.40;;;1.00;80.90;;;;;;5003596;28;20479;-44
2021/12/21 09:48:28;;;;;;;7.47;4.33;;;1.20;80.70;;;;;;5000441;28;20475;-44
2021/12/21 09:50:55;;;;;;;7.27;4.57;;;1.30;80.50;;;;;;4997539;28;20457;-44
2021/12/21 09:53:23;;;;;;;5.40;3.83;;;1.40;79.50;;;;;;4986986;28;20564;-44
2021/12/21 09:55:50;;;;;;;6.53;4.50;;;1.50;79.40;;;;;;4983724;28;20472;-44
2021/12/21 09:58:17;;;;;;;5.40;3.97;;;1.70;79.10;;;;;;4997264;28;20515;-44
2021/12/21 10:00:45;;;;;;;6.07;4.53;;;1.80;78.60;;;;;;4998204;28;20559;-44
2021/12/21 10:03:12;;;;;;;5.03;4.50;;;2.00;78.20;;;;;;4998862;28;20476;-44
2021/12/21 10:05:41;;;;;;;6.07;4.60;;;2.10;77.10;;;;;;5001843;28;20543;-45
2021/12/21 10:08:17;;;;;;;5.13;4.20;;;2.20;76.70;;;;;;4981898;28;20607;-44
2021/12/21 10:10:50;;;;;;;4.63;4.23;;;2.30;76.40;;;;;;4984839;28;20471;-45
2021/12/21 10:13:19;;;;;;;9.23;5.37;;;2.40;76.40;;;;;;4997564;28;20474;-44
2021/12/21 10:15:55;;;;;;;5.60;4.27;;;2.50;75.80;;;;;;4999611;28;20460;-44
2021/12/21 10:18:44;;;;;;;9.07;5.93;;;2.50;75.80;;;;;;4998685;28;20492;-44
2021/12/21 10:21:14;;;;;;;7.33;4.90;;;2.60;75.90;;;;;;4998765;28;20471;-44
2021/12/21 10:23:43;;;;;;;6.90;4.93;;;2.70;75.60;;;;;;5001274;28;20551;-44
2021/12/21 10:26:26;;;;;;;5.93;5.33;;;2.70;75.10;;;;;;4998592;28;20457;-44
2021/12/21 10:28:59;;;;;;;10.50;5.30;;;2.80;75.20;;;;;;5001211;28;20642;-44
2021/12/21 10:31:39;;;;;;;10.97;5.20;;;2.80;75.00;;;;;;4999039;28;20544;-44
2021/12/21 10:34:11;;;;;;;12.50;6.73;;;2.80;75.30;;;;;;4987030;28;20977;-44
2021/12/21 10:36:50;;;;;;;6.00;4.47;;;2.80;75.30;;;;;;4998685;28;20489;-44
2021/12/21 10:39:23;;;;;;;6.13;5.53;;;2.80;75.30;;;;;;4999191;28;20466;-45
2021/12/21 10:41:52;;;;;;;6.23;4.73;;;2.70;75.40;;;;;;4987641;28;20458;-45
2021/12/21 10:44:20;;;;;;;6.73;5.00;;;2.70;75.00;;;;;;5000237;28;20578;-44
2021/12/21 10:46:52;;;;;;;7.60;5.20;;;2.70;74.90;;;;;;5005998;28;20448;-45
2021/12/21 10:49:35;;;;;;;9.57;5.00;;;2.70;75.10;;;;;;5000473;28;20536;-45
2021/12/21 10:52:08;;;;;;;4.97;4.47;;;2.70;75.60;;;;;;5000246;28;20469;-45
2021/12/21 10:54:45;;;;;;;5.83;4.17;;;2.80;75.60;;;;;;5004478;28;20548;-45
2021/12/21 10:57:29;;;;;;;9.57;4.77;;;2.70;74.60;;;;;;5000268;28;20485;-45
2021/12/21 10:59:58;;;;;;;6.93;5.77;;;2.90;74.80;;;;;;4987993;28;20510;-45
2021/12/21 11:02:32;;;;;;;9.07;5.10;;;3.00;74.70;;;;;;5000647;28;20452;-45
2021/12/21 11:05:02;;;;;;;7.60;4.77;;;3.00;74.60;;;;;;5003039;28;20465;-45
2021/12/21 11:07:40;;;;;;;;;;;;;;;;;;;;;
2021/12/21 11:10:32;;;;;;;8.20;5.00;;;3.10;74.70;;;;;;5005010;28;20539;-44
2021/12/21 11:13:10;;;;;;;6.90;5.57;;;3.10;74.50;;;;;;4987438;28;20497;-44
2021/12/21 11:15:42;;;;;;;6.30;5.00;;;3.10;74.60;;;;;;5004084;28;20512;-45
2021/12/21 11:18:16;;;;;;;8.07;5.70;;;3.10;74.70;;;;;;4984429;28;20853;-44
2021/12/21 11:20:46;;;;;;;12.83;5.40;;;3.10;74.50;;;;;;5003028;28;20553;-45
2021/12/21 11:23:15;;;;;;;9.07;5.77;;;3.10;74.70;;;;;;4986680;28;20469;-44
2021/12/21 11:25:44;;;;;;;6.70;5.57;;;3.10;75.00;;;;;;5002345;28;20487;-45
2021/12/21 11:28:20;;;;;;;7.10;5.90;;;3.10;74.90;;;;;;4987758;28;20471;-45
2021/12/21 11:30:47;;;;;;;4.67;4.17;;;3.10;74.90;;;;;;5001670;28;20470;-45
2021/12/21 11:33:17;;;;;;;6.23;5.70;;;3.10;74.90;;;;;;5000309;28;20472;-45
2021/12/21 11:38:13;;;;;;;7.33;4.80;;;3.00;74.70;;;;;;5000140;28;21092;-46
2021/12/21 11:40:43;;;;;;;8.10;5.13;;;3.00;74.60;;;;;;4986054;28;20954;-46
2021/12/21 11:43:21;;;;;;;6.20;4.83;;;3.00;74.60;;;;;;4999100;28;20460;-46
2021/12/21 11:45:50;;;;;;;8.20;5.30;;;3.00;74.40;;;;;;5000715;28;20621;-46
2021/12/21 11:48:28;;;;;;;6.17;5.07;;;3.00;74.50;;;;;;5000991;28;21040;-46
2021/12/21 11:51:10;;;;;;;8.60;4.87;;;3.00;74.60;;;;;;5001213;28;20468;-46
2021/12/21 11:53:38;;;;;;;5.93;4.87;;;3.10;74.70;;;;;;4985692;28;20468;-45
2021/12/21 11:56:06;;;;;;;7.50;5.10;;;3.10;73.90;;;;;;4986355;28;20903;-45
2021/12/21 11:58:39;;;;;;;8.40;5.17;;;3.00;74.00;;;;;;5003670;28;20847;-45
2021/12/21 12:01:17;;;;;;;8.83;5.50;;;3.10;74.00;;;;;;4987989;28;21147;-45
2021/12/21 12:04:06;;;;;;;7.87;4.93;;;3.10;73.90;;;;;;5001218;28;20560;-45
2021/12/21 12:06:50;;;;;;;5.30;3.73;;;3.10;73.80;;;;;;4988969;28;20463;-45
2021/12/21 12:09:31;;;;;;;8.50;5.10;;;3.20;73.50;;;;;;4999519;28;20475;-45
2021/12/21 12:12:11;;;;;;;4.90;4.33;;;3.20;73.40;;;;;;5000305;28;20460;-45
2021/12/21 12:14:41;;;;;;;5.17;4.60;;;3.20;74.00;;;;;;4985717;28;20467;-45
2021/12/21 12:17:28;;;;;;;7.60;4.90;;;3.20;73.80;;;;;;5000742;28;20874;-45
2021/12/21 12:20:04;;;;;;;5.40;5.00;;;3.30;74.30;;;;;;4999631;28;20892;-45
2021/12/21 12:22:40;;;;;;;6.87;4.40;;;3.40;74.20;;;;;;4999855;28;20460;-45
2021/12/21 12:25:17;;;;;;;8.30;5.10;;;3.40;73.80;;;;;;4992019;28;20499;-45
2021/12/21 12:27:47;;;;;;;5.67;4.37;;;3.40;73.40;;;;;;4997452;28;20462;-45
2021/12/21 12:30:23;;;;;;;6.73;4.50;;;3.50;73.00;;;;;;4984676;28;20476;-45
2021/12/21 12:33:06;;;;;;;7.07;4.67;;;3.60;73.30;;;;;;5000352;28;20467;-45
2021/12/21 12:35:35;;;;;;;6.03;4.50;;;3.60;73.30;;;;;;4982361;28;20464;-45
2021/12/21 12:38:03;;;;;;;7.20;4.43;;;3.50;73.00;;;;;;4980909;28;20702;-45
2021/12/21 12:40:36;;;;;;;9.93;4.07;;;3.60;72.90;;;;;;4997522;28;21187;-45
2021/12/21 12:43:16;;;;;;;5.73;4.50;;;3.60;72.30;;;;;;4990572;28;20461;-45
2021/12/21 12:45:51;;;;;;;6.87;4.60;;;3.70;72.80;;;;;;4993848;28;20490;-45
2021/12/21 12:48:29;;;;;;;9.40;4.50;;;3.70;72.90;;;;;;4997310;28;20484;-45
2021/12/21 12:50:58;;;;;;;6.13;4.47;;;3.70;72.90;;;;;;4981235;28;20965;-45
2021/12/21 12:53:54;;;;;;;8.20;5.03;;;3.70;72.50;;;;;;4978958;28;20962;-45
2021/12/21 12:56:22;;;;;;;8.60;4.33;;;3.70;72.70;;;;;;4982817;28;20538;-45
2021/12/21 12:58:56;;;;;;;7.83;3.70;;;3.80;72.30;;;;;;4975496;28;20832;-45
2021/12/21 13:01:27;;;;;;;6.80;4.63;;;3.80;72.00;;;;;;4978504;28;21604;-45
2021/12/21 13:03:57;;;;;;;4.43;4.03;;;3.90;71.70;;;;;;4997201;28;20461;-45
2021/12/21 13:06:28;;;;;;;9.90;4.73;;;3.90;71.50;;;;;;4998403;28;20449;-45
2021/12/21 13:08:55;;;;;;;7.40;3.97;;;3.90;71.20;;;;;;4982949;28;20939;-45
2021/12/21 13:11:30;;;;;;;5.53;4.40;;;4.00;71.30;;;;;;4979486;28;20538;-45
2021/12/21 13:13:57;;;;;;;8.67;4.80;;;4.10;71.00;;;;;;4998558;28;20456;-45
2021/12/21 13:16:26;;;;;;;4.57;3.33;;;4.10;71.00;;;;;;4994564;28;20496;-46
2021/12/21 13:19:03;;;;;;;4.30;3.77;;;4.10;69.30;;;;;;4976866;28;20492;-46
2021/12/21 13:21:37;;;;;;;8.47;4.00;;;4.10;69.30;;;;;;4996414;28;20926;-45
2021/12/21 13:24:09;;;;;;;6.37;4.07;;;4.10;68.80;;;;;;4993849;28;20468;-46
2021/12/21 13:26:51;;;;;;;5.73;4.70;;;4.10;68.90;;;;;;4997953;28;20538;-45
2021/12/21 13:29:27;;;;;;;6.40;4.87;;;4.10;68.90;;;;;;4997529;28;20603;-46
2021/12/21 13:31:56;;;;;;;4.50;4.10;;;4.10;68.70;;;;;;4998856;28;20452;-45
2021/12/21 13:34:26;;;;;;;7.50;4.67;;;4.10;68.80;;;;;;4994625;28;20469;-46
2021/12/21 13:36:56;;;;;;;12.10;5.27;;;4.10;68.70;;;;;;4998166;28;20959;-46
2021/12/21 13:39:33;;;;;;;8.23;4.43;;;4.10;68.90;;;;;;4997378;28;20563;-46
2021/12/21 13:42:05;;;;;;;9.97;5.40;;;4.10;68.30;;;;;;4995076;28;20838;-46
2021/12/21 13:44:42;;;;;;;6.53;5.90;;;4.10;68.60;;;;;;4993235;28;20622;-46
2021/12/21 13:47:27;;;;;;;5.57;4.57;;;4.10;68.90;;;;;;4993513;28;20471;-46
2021/12/21 13:50:13;;;;;;;5.03;4.53;;;4.20;69.70;;;;;;4980575;28;20460;-46
2021/12/21 13:53:14;;;;;;;4.50;4.10;;;4.20;70.00;;;;;;4993293;28;20456;-45
2021/12/21 13:55:41;;;;;;;7.40;5.10;;;4.30;69.90;;;;;;4964476;28;20482;-46
2021/12/21 13:58:10;;;;;;;5.90;5.30;;;4.30;69.60;;;;;;4995217;28;20500;-46
2021/12/21 14:00:44;;;;;;;10.33;6.97;;;4.30;68.70;;;;;;4997651;28;20504;-45
2021/12/21 14:03:27;;;;;;;7.00;5.63;;;4.30;68.40;;;;;;4993560;28;20614;-45